Time;durP1;ratioP1;P1;durP2;ratioP2;P2;SDS_P1;SDS_P2;PMS_P1;PMS_P2;Temp;Humidity;BMP_temperature;BMP_pressure;BME280_temperature;BME280_humidity;BME280_pressure;Samples;Min_cycle;Max_cycle;Signal;HPM_P1;HPM_P2
2023/11/14 00:01:09;;;;;;;19.98;3.88;;;8.80;99.90;;;;;;5040596;28;19967;-61
2023/11/14 00:03:35;;;;;;;;;;;8.80;99.90;;;;;;5038965;28;20033;-59
2023/11/14 00:06:02;;;;;;;29.63;3.80;;;8.80;99.90;;;;;;5038846;28;20020;-58
2023/11/14 00:08:28;;;;;;;26.98;4.32;;;8.90;99.90;;;;;;5041948;28;20061;-58
2023/11/14 00:10:54;;;;;;;;;;;8.90;99.90;;;;;;5033277;28;20099;-60
2023/11/14 00:13:20;;;;;;;17.50;4.45;;;8.90;99.90;;;;;;5032832;28;19925;-59
2023/11/14 00:15:46;;;;;;;27.85;5.00;;;8.80;99.90;;;;;;5041382;28;20055;-61
2023/11/14 00:18:11;;;;;;;;;;;8.90;99.90;;;;;;5026010;28;20539;-61
2023/11/14 00:20:38;;;;;;;27.85;4.38;;;8.90;99.90;;;;;;5019961;28;20402;-59
2023/11/14 00:23:03;;;;;;;22.70;5.32;;;8.90;99.90;;;;;;5026662;28;20131;-61
2023/11/14 00:25:29;;;;;;;;;;;8.90;99.90;;;;;;5029999;28;20129;-60
2023/11/14 00:27:54;;;;;;;20.08;3.85;;;8.90;99.90;;;;;;5023402;28;19921;-60
2023/11/14 00:30:20;;;;;;;28.70;4.63;;;8.90;99.90;;;;;;5020589;28;20079;-60
2023/11/14 00:32:45;;;;;;;;;;;8.90;99.90;;;;;;5025857;28;20479;-60
2023/11/14 00:35:11;;;;;;;17.45;3.58;;;8.90;99.90;;;;;;5023441;28;19928;-60
2023/11/14 00:37:37;;;;;;;;;;;8.90;99.90;;;;;;5024815;28;20045;-59
2023/11/14 00:40:03;;;;;;;19.50;3.97;;;8.90;99.90;;;;;;5023500;28;20404;-61
2023/11/14 00:42:32;;;;;;;22.70;3.03;;;8.90;99.90;;;;;;5028180;28;20107;-60
2023/11/14 00:44:57;;;;;;;28.65;5.05;;;8.90;99.90;;;;;;5016050;28;20509;-62
2023/11/14 00:47:23;;;;;;;;;;;8.90;99.90;;;;;;5020486;28;20038;-60
2023/11/14 00:49:48;;;;;;;24.27;4.45;;;8.90;99.90;;;;;;5019293;28;19929;-61
2023/11/14 00:52:14;;;;;;;26.92;4.05;;;8.90;99.90;;;;;;5017810;28;20052;-60
2023/11/14 00:54:40;;;;;;;18.10;3.85;;;8.90;99.90;;;;;;5023328;28;20444;-60
2023/11/14 00:57:06;;;;;;;26.55;5.80;;;8.90;99.90;;;;;;5026576;28;20468;-59
2023/11/14 00:59:32;;;;;;;;;;;8.90;99.90;;;;;;5026024;28;20045;-59
2023/11/14 01:01:59;;;;;;;28.23;4.55;;;8.80;99.90;;;;;;5031174;28;20651;-61
2023/11/14 01:04:25;;;;;;;30.77;4.45;;;8.80;99.90;;;;;;5037004;28;20044;-61
2023/11/14 01:06:51;;;;;;;33.33;4.90;;;8.80;99.90;;;;;;5041462;28;20047;-60
2023/11/14 01:09:16;;;;;;;;;;;8.80;99.90;;;;;;5045516;28;20041;-60
2023/11/14 01:11:42;;;;;;;36.65;4.43;;;8.80;99.90;;;;;;5039025;28;19920;-61
2023/11/14 01:14:08;;;;;;;29.38;4.30;;;8.70;99.90;;;;;;5042490;28;20033;-60
2023/11/14 01:16:34;;;;;;;;;;;8.70;99.90;;;;;;5040630;28;20044;-61
2023/11/14 01:18:59;;;;;;;25.23;4.30;;;8.70;99.90;;;;;;5041023;28;19917;-61
2023/11/14 01:21:25;;;;;;;;;;;8.70;99.90;;;;;;5043356;28;20045;-61
2023/11/14 01:23:51;;;;;;;32.33;4.85;;;8.70;99.90;;;;;;5040796;28;19921;-60
2023/11/14 01:26:17;;;;;;;;;;;8.70;99.90;;;;;;5040043;28;20114;-61
2023/11/14 01:28:43;;;;;;;21.98;4.47;;;8.70;99.90;;;;;;5042235;28;20529;-60
2023/11/14 01:31:20;;;;;;;23.90;4.65;;;8.70;99.90;;;;;;5034169;28;20041;-61
2023/11/14 01:33:46;;;;;;;29.15;4.47;;;8.70;99.90;;;;;;5027633;28;20041;-61
2023/11/14 01:36:11;;;;;;;;;;;8.70;99.90;;;;;;5031552;28;20056;-61
2023/11/14 01:38:37;;;;;;;22.65;3.80;;;8.60;99.90;;;;;;5025625;28;19923;-59
2023/11/14 01:41:03;;;;;;;26.60;3.55;;;8.60;99.90;;;;;;5024820;28;20037;-61
2023/11/14 01:43:28;;;;;;;18.15;3.38;;;8.70;99.90;;;;;;5026976;28;20489;-61
2023/11/14 01:45:54;;;;;;;;;;;8.70;99.90;;;;;;5030721;28;20037;-61
2023/11/14 01:48:20;;;;;;;27.33;3.83;;;8.60;99.90;;;;;;5029741;28;19963;-61
2023/11/14 01:50:46;;;;;;;;;;;8.60;99.90;;;;;;5024740;28;20065;-62
2023/11/14 01:53:12;;;;;;;35.25;4.90;;;8.60;99.90;;;;;;5026483;28;19928;-61
2023/11/14 01:55:37;;;;;;;;;;;8.60;99.90;;;;;;5027737;28;20048;-63
2023/11/14 01:58:03;;;;;;;36.05;5.82;;;8.60;99.90;;;;;;5031033;28;19943;-63
2023/11/14 02:00:30;;;;;;;;;;;8.60;99.90;;;;;;5029335;28;20053;-61
2023/11/14 02:02:56;;;;;;;;;;;8.60;99.90;;;;;;5039661;28;20654;-62
2023/11/14 02:05:23;;;;;;;25.77;4.47;;;8.50;99.90;;;;;;5046150;28;19917;-62
2023/11/14 02:07:49;;;;;;;30.25;4.32;;;8.50;99.90;;;;;;5038780;28;20310;-61
2023/11/14 02:10:15;;;;;;;;;;;8.40;99.90;;;;;;5044530;28;20045;-61
2023/11/14 02:12:40;;;;;;;29.67;3.60;;;8.40;99.90;;;;;;5040171;28;20011;-62
2023/11/14 02:15:07;;;;;;;;;;;8.40;99.90;;;;;;5043804;28;20443;-62
2023/11/14 02:17:32;;;;;;;32.08;4.35;;;8.40;99.90;;;;;;5037955;28;20611;-62
2023/11/14 02:19:58;;;;;;;;;;;8.40;99.90;;;;;;5040572;28;20037;-62
2023/11/14 02:22:24;;;;;;;27.45;3.88;;;8.40;99.90;;;;;;5044314;28;19927;-62
2023/11/14 02:24:55;;;;;;;;;;;8.50;99.90;;;;;;5039131;28;20045;-61
2023/11/14 02:27:22;;;;;;;32.20;7.18;;;8.40;99.90;;;;;;5041678;28;19963;-62
2023/11/14 02:29:49;;;;;;;31.58;5.45;;;8.40;99.90;;;;;;5039850;28;20056;-62
2023/11/14 02:32:14;;;;;;;31.25;4.30;;;8.40;99.90;;;;;;5026475;28;20149;-62
2023/11/14 02:34:42;;;;;;;;;;;8.40;99.90;;;;;;5025213;28;20132;-62
2023/11/14 02:37:08;;;;;;;23.83;3.95;;;8.40;99.90;;;;;;5023059;28;19920;-62
2023/11/14 02:39:33;;;;;;;;;;;8.40;99.90;;;;;;5020508;28;20120;-62
2023/11/14 02:41:59;;;;;;;28.02;4.13;;;8.30;99.90;;;;;;5020129;28;19925;-61
2023/11/14 02:44:26;;;;;;;;;;;8.40;99.90;;;;;;5024330;28;20096;-60
2023/11/14 02:46:52;;;;;;;27.10;5.38;;;8.40;99.90;;;;;;5020527;28;19952;-62
2023/11/14 02:49:39;;;;;;;;;;;8.30;99.90;;;;;;5024954;28;20799;-61
2023/11/14 02:52:05;;;;;;;25.23;4.07;;;8.30;99.90;;;;;;5020698;28;19921;-62
2023/11/14 02:54:31;;;;;;;28.83;4.68;;;8.30;99.90;;;;;;5022209;28;20130;-62
2023/11/14 02:56:57;;;;;;;;;;;8.30;99.90;;;;;;5023632;28;20523;-62
2023/11/14 02:59:22;;;;;;;31.27;4.45;;;8.30;99.90;;;;;;5022283;28;19922;-62
2023/11/14 03:01:48;;;;;;;29.42;4.68;;;8.30;99.90;;;;;;5030622;28;20538;-62
2023/11/14 03:04:14;;;;;;;26.10;3.65;;;8.30;99.90;;;;;;5038916;28;20033;-65
2023/11/14 03:06:39;;;;;;;28.25;4.13;;;8.30;99.90;;;;;;5043318;28;20096;-62
2023/11/14 03:09:05;;;;;;;26.05;5.15;;;8.30;99.90;;;;;;5041814;28;20048;-62
2023/11/14 03:11:31;;;;;;;;;;;8.30;99.90;;;;;;5044278;28;20106;-61
2023/11/14 03:13:56;;;;;;;26.75;4.82;;;8.40;99.90;;;;;;5034147;28;19928;-62
2023/11/14 03:16:22;;;;;;;38.10;5.28;;;8.30;99.90;;;;;;5040176;28;20065;-62
2023/11/14 03:18:48;;;;;;;26.05;4.07;;;8.30;99.90;;;;;;5039242;28;20048;-62
2023/11/14 03:21:15;;;;;;;;;;;8.30;99.90;;;;;;5043437;28;20052;-63
2023/11/14 03:23:42;;;;;;;29.15;4.47;;;8.30;99.90;;;;;;5043709;28;19924;-61
2023/11/14 03:26:08;;;;;;;23.77;4.57;;;8.30;99.90;;;;;;5043347;28;20045;-62
2023/11/14 03:28:34;;;;;;;28.00;4.45;;;8.30;99.90;;;;;;5042528;28;20572;-62
2023/11/14 03:31:00;;;;;;;23.90;3.67;;;8.30;99.90;;;;;;5040261;28;20121;-62
2023/11/14 03:33:25;;;;;;;28.63;4.10;;;8.30;99.90;;;;;;5040446;28;20132;-61
2023/11/14 03:35:51;;;;;;;29.50;4.80;;;8.30;99.90;;;;;;5042342;28;20079;-62
2023/11/14 03:38:17;;;;;;;32.58;4.68;;;8.40;99.90;;;;;;5039514;28;20041;-63
2023/11/14 03:40:42;;;;;;;;;;;8.40;99.90;;;;;;5042780;28;20045;-62
2023/11/14 03:43:08;;;;;;;40.45;5.00;;;8.40;99.90;;;;;;5041385;28;19928;-63
2023/11/14 03:45:34;;;;;;;37.17;4.68;;;8.40;99.90;;;;;;5042921;28;20037;-62
2023/11/14 03:47:59;;;;;;;;;;;8.40;99.90;;;;;;5042172;28;20087;-62
2023/11/14 03:50:25;;;;;;;39.85;5.57;;;8.40;99.90;;;;;;5042425;28;19974;-62
2023/11/14 03:52:51;;;;;;;30.60;4.75;;;8.40;99.90;;;;;;5045917;28;20041;-63
2023/11/14 03:55:17;;;;;;;30.63;5.85;;;8.40;99.90;;;;;;5041777;28;20072;-61
2023/11/14 03:57:43;;;;;;;49.58;6.00;;;8.40;99.90;;;;;;5045186;28;20044;-62
2023/11/14 04:00:09;;;;;;;;;;;8.40;99.90;;;;;;5049277;28;20044;-62
2023/11/14 04:02:37;;;;;;;24.13;3.80;;;8.50;99.90;;;;;;5030105;28;19913;-63
2023/11/14 04:05:04;;;;;;;30.08;5.22;;;8.50;99.90;;;;;;5028925;28;20060;-62
2023/11/14 04:07:30;;;;;;;40.22;5.88;;;8.40;99.90;;;;;;5027638;28;20128;-61
2023/11/14 04:09:56;;;;;;;26.38;4.95;;;8.40;99.90;;;;;;5025959;28;20117;-63
2023/11/14 04:12:23;;;;;;;27.88;4.32;;;8.50;99.90;;;;;;5026699;28;20045;-62
2023/11/14 04:14:49;;;;;;;30.65;4.30;;;8.50;99.90;;;;;;5026707;28;20525;-64
2023/11/14 04:17:17;;;;;;;32.97;5.40;;;8.50;99.90;;;;;;5025050;28;20079;-63
2023/11/14 04:19:45;;;;;;;30.75;4.95;;;8.50;99.90;;;;;;5027015;28;20400;-62
2023/11/14 04:22:14;;;;;;;28.88;4.80;;;8.50;99.90;;;;;;5022140;28;20056;-62
2023/11/14 04:24:39;;;;;;;28.38;4.93;;;8.50;99.90;;;;;;5028963;28;20644;-62
2023/11/14 04:27:05;;;;;;;;;;;8.50;99.90;;;;;;5028172;28;20079;-62
2023/11/14 04:29:31;;;;;;;29.95;4.85;;;8.50;99.90;;;;;;5025345;28;19925;-62
2023/11/14 04:31:57;;;;;;;24.17;3.55;;;8.50;99.90;;;;;;5033936;28;20523;-61
2023/11/14 04:34:22;;;;;;;;;;;8.50;99.90;;;;;;5044914;28;20656;-61
2023/11/14 04:36:47;;;;;;;24.07;4.17;;;8.50;99.90;;;;;;5041512;28;19917;-62
2023/11/14 04:39:13;;;;;;;28.73;5.25;;;8.60;99.90;;;;;;5045228;28;20583;-62
2023/11/14 04:41:39;;;;;;;28.63;4.55;;;8.60;99.90;;;;;;5042560;28;20584;-62
2023/11/14 04:44:05;;;;;;;44.55;5.82;;;8.60;99.90;;;;;;5044938;28;20481;-61
2023/11/14 04:46:31;;;;;;;34.03;5.07;;;8.60;99.90;;;;;;5036546;28;20651;-61
2023/11/14 04:48:56;;;;;;;;;;;8.60;99.90;;;;;;5034366;28;20037;-61
2023/11/14 04:51:22;;;;;;;23.17;4.30;;;8.60;99.90;;;;;;5044774;28;20508;-61
2023/11/14 04:53:47;;;;;;;46.25;6.88;;;8.60;99.90;;;;;;5036249;28;20060;-62
2023/11/14 04:56:15;;;;;;;34.28;5.15;;;8.70;99.90;;;;;;5038677;28;20049;-61
2023/11/14 04:58:41;;;;;;;29.23;5.03;;;8.70;99.90;;;;;;5038162;28;20041;-61
2023/11/14 05:01:10;;;;;;;;;;;8.70;99.90;;;;;;5037562;28;20037;-62
2023/11/14 05:03:35;;;;;;;35.85;4.65;;;8.70;99.90;;;;;;5023850;28;19920;-62
2023/11/14 05:06:01;;;;;;;;;;;8.70;99.90;;;;;;5028324;28;20095;-62
2023/11/14 05:08:27;;;;;;;35.28;4.65;;;8.70;99.90;;;;;;5026792;28;21003;-62
2023/11/14 05:10:52;;;;;;;32.67;4.88;;;8.70;99.90;;;;;;5027699;28;20113;-61
2023/11/14 05:13:18;;;;;;;;;;;8.70;99.90;;;;;;5027155;28;20037;-61
2023/11/14 05:15:43;;;;;;;25.15;5.10;;;8.70;99.90;;;;;;5028447;28;20407;-61
2023/11/14 05:18:09;;;;;;;;;;;8.70;99.90;;;;;;5021639;28;20041;-62
2023/11/14 05:20:34;;;;;;;32.80;3.78;;;8.70;99.90;;;;;;5026655;28;19924;-62
2023/11/14 05:23:00;;;;;;;24.42;5.65;;;8.70;99.90;;;;;;5026571;28;20034;-62
2023/11/14 05:25:26;;;;;;;32.63;4.85;;;8.70;99.90;;;;;;5028055;28;20159;-61
2023/11/14 05:27:51;;;;;;;26.52;5.18;;;8.70;99.90;;;;;;5027410;28;20572;-62
2023/11/14 05:30:17;;;;;;;30.65;5.18;;;8.70;99.90;;;;;;5024945;28;20429;-62
2023/11/14 05:32:43;;;;;;;30.77;5.18;;;8.70;99.90;;;;;;5044466;28;20033;-62
2023/11/14 05:35:09;;;;;;;30.23;4.55;;;8.70;99.90;;;;;;5042247;28;20047;-62
2023/11/14 05:37:35;;;;;;;;;;;8.70;99.90;;;;;;5043697;28;20041;-62
2023/11/14 05:40:00;;;;;;;28.20;4.95;;;8.70;99.90;;;;;;5046494;28;19916;-62
2023/11/14 05:42:26;;;;;;;33.15;4.32;;;8.70;99.90;;;;;;5045524;28;20590;-62
2023/11/14 05:44:52;;;;;;;;;;;8.70;99.90;;;;;;5048264;28;20670;-62
2023/11/14 05:47:18;;;;;;;28.35;5.22;;;8.60;99.90;;;;;;5045522;28;19920;-62
2023/11/14 05:49:44;;;;;;;33.33;5.07;;;8.70;99.90;;;;;;5047963;28;20411;-62
2023/11/14 05:52:13;;;;;;;32.75;5.20;;;8.60;99.90;;;;;;5045738;28;20047;-61
2023/11/14 05:54:38;;;;;;;28.13;4.95;;;8.50;99.90;;;;;;5042288;28;20030;-62
2023/11/14 05:57:04;;;;;;;36.45;5.05;;;8.50;99.90;;;;;;5042744;28;20048;-62
2023/11/14 05:59:30;;;;;;;24.92;4.20;;;8.50;99.90;;;;;;5045589;28;20048;-62
2023/11/14 06:01:55;;;;;;;29.25;4.65;;;8.60;99.90;;;;;;5037618;28;20565;-61
2023/11/14 06:04:21;;;;;;;;;;;8.50;99.90;;;;;;5043676;28;20052;-61
2023/11/14 06:06:47;;;;;;;35.25;5.50;;;8.60;99.90;;;;;;5045494;28;20007;-62
2023/11/14 06:09:13;;;;;;;32.78;5.72;;;8.60;99.90;;;;;;5046408;28;20045;-63
2023/11/14 06:11:39;;;;;;;;;;;8.60;99.90;;;;;;5042224;28;20059;-62
2023/11/14 06:14:04;;;;;;;42.75;4.97;;;8.60;99.90;;;;;;5046840;28;19923;-62
2023/11/14 06:16:31;;;;;;;31.25;4.35;;;8.60;99.90;;;;;;5041899;28;20504;-61
2023/11/14 06:18:57;;;;;;;34.35;5.10;;;8.60;99.90;;;;;;5038010;28;20037;-64
2023/11/14 06:21:22;;;;;;;;;;;8.60;99.90;;;;;;5035070;28;20063;-64
2023/11/14 06:23:48;;;;;;;34.83;4.28;;;8.60;99.90;;;;;;5043167;28;19916;-64
2023/11/14 06:26:15;;;;;;;26.45;5.45;;;8.60;99.90;;;;;;5038808;28;20044;-62
2023/11/14 06:28:40;;;;;;;33.20;5.05;;;8.60;99.90;;;;;;5039406;28;20044;-57
2023/11/14 06:31:06;;;;;;;;;;;8.60;99.90;;;;;;5036237;28;20124;-65
2023/11/14 06:33:32;;;;;;;27.38;4.45;;;8.60;99.90;;;;;;5023050;28;19979;-65
2023/11/14 06:36:01;;;;;;;25.40;4.40;;;8.60;99.90;;;;;;5021748;28;20038;-64
2023/11/14 06:38:26;;;;;;;31.25;5.10;;;8.60;99.90;;;;;;5025615;28;20107;-59
2023/11/14 06:40:52;;;;;;;;;;;8.50;99.90;;;;;;5021882;28;20068;-62
2023/11/14 06:43:18;;;;;;;30.25;4.13;;;8.50;99.90;;;;;;5021761;28;19928;-62
2023/11/14 06:45:43;;;;;;;;;;;8.50;99.90;;;;;;5026817;28;20385;-57
2023/11/14 06:48:09;;;;;;;28.77;4.68;;;8.50;99.90;;;;;;5026294;28;20442;-58
2023/11/14 06:50:34;;;;;;;;;;;8.50;99.90;;;;;;5026510;28;20096;-61
2023/11/14 06:53:00;;;;;;;35.78;5.07;;;8.50;99.90;;;;;;5025754;28;19921;-59
2023/11/14 06:55:28;;;;;;;35.05;5.38;;;8.50;99.90;;;;;;5026223;28;20037;-60
2023/11/14 06:57:53;;;;;;;18.55;3.60;;;8.50;99.90;;;;;;5019018;28;20514;-62
2023/11/14 07:00:19;;;;;;;;;;;8.50;99.90;;;;;;5025630;28;20052;-64
2023/11/14 07:02:45;;;;;;;26.83;4.20;;;8.50;99.90;;;;;;5044745;28;20462;-60
2023/11/14 07:05:11;;;;;;;27.23;5.20;;;8.50;99.90;;;;;;5042741;28;20781;-62
2023/11/14 07:07:40;;;;;;;32.13;5.00;;;8.50;99.90;;;;;;5037255;28;20764;-58
2023/11/14 07:10:08;;;;;;;28.77;4.78;;;8.50;99.90;;;;;;5039527;28;20041;-57
2023/11/14 07:12:34;;;;;;;24.75;5.68;;;8.60;99.90;;;;;;5042465;28;20116;-61
2023/11/14 07:15:00;;;;;;;;;;;8.60;99.90;;;;;;5041754;28;20468;-53
2023/11/14 07:17:26;;;;;;;28.42;5.05;;;8.60;99.90;;;;;;5037086;28;19917;-57
2023/11/14 07:19:53;;;;;;;25.13;4.13;;;8.60;99.90;;;;;;5039053;28;20061;-62
2023/11/14 07:22:19;;;;;;;31.98;6.22;;;8.60;99.90;;;;;;5037942;28;20037;-62
2023/11/14 07:24:44;;;;;;;;;;;8.60;99.90;;;;;;5037149;28;21404;-62
2023/11/14 07:27:11;;;;;;;34.45;5.60;;;8.60;99.90;;;;;;5042234;28;19921;-61
2023/11/14 07:29:36;;;;;;;32.72;5.13;;;8.60;99.90;;;;;;5045248;28;20045;-62
2023/11/14 07:32:02;;;;;;;;;;;8.60;99.90;;;;;;5030246;28;20037;-60
2023/11/14 07:34:27;;;;;;;27.80;4.18;;;8.60;99.90;;;;;;5028984;28;19924;-60
2023/11/14 07:36:53;;;;;;;32.00;5.95;;;8.60;99.90;;;;;;5025361;28;20037;-61
2023/11/14 07:39:19;;;;;;;41.25;6.60;;;8.70;99.90;;;;;;5024165;28;20079;-62
2023/11/14 07:41:44;;;;;;;;;;;8.70;99.90;;;;;;5026771;28;20123;-61
2023/11/14 07:44:10;;;;;;;32.55;5.57;;;8.70;99.90;;;;;;5013901;28;19973;-62
2023/11/14 07:46:39;;;;;;;34.05;5.60;;;8.70;99.90;;;;;;5025338;28;20548;-60
2023/11/14 07:49:05;;;;;;;28.77;5.60;;;8.70;99.90;;;;;;5021123;28;20045;-62
2023/11/14 07:51:32;;;;;;;33.13;5.68;;;8.80;99.90;;;;;;5020876;28;20122;-61
2023/11/14 07:53:58;;;;;;;23.75;3.90;;;8.90;99.90;;;;;;5021411;28;20056;-61
2023/11/14 07:56:24;;;;;;;32.63;5.45;;;9.00;99.90;;;;;;5028882;28;20091;-62
2023/11/14 07:58:50;;;;;;;30.02;5.10;;;9.00;99.90;;;;;;5022812;28;20424;-60
2023/11/14 08:01:16;;;;;;;;;;;9.00;99.90;;;;;;5023831;28;20046;-58
2023/11/14 08:03:42;;;;;;;28.20;4.80;;;9.00;99.90;;;;;;5025720;28;19940;-59
2023/11/14 08:06:08;;;;;;;27.10;4.32;;;9.00;99.90;;;;;;5029878;28;20048;-61
2023/11/14 08:08:34;;;;;;;;;;;8.90;99.90;;;;;;5024004;28;20517;-62
2023/11/14 08:11:01;;;;;;;29.73;4.28;;;9.00;99.90;;;;;;5018235;28;19921;-61
2023/11/14 08:13:27;;;;;;;36.40;5.40;;;9.00;99.90;;;;;;5021795;28;20088;-60
2023/11/14 08:15:52;;;;;;;;;;;9.10;99.90;;;;;;5025214;28;20437;-62
2023/11/14 08:18:18;;;;;;;31.25;5.43;;;9.10;99.90;;;;;;5022167;28;19975;-62
2023/11/14 08:20:44;;;;;;;29.10;5.07;;;9.20;99.90;;;;;;5025265;28;20481;-60
2023/11/14 08:23:09;;;;;;;23.38;4.32;;;9.10;99.90;;;;;;5024634;28;20045;-60
2023/11/14 08:25:35;;;;;;;25.60;4.32;;;9.10;99.90;;;;;;5024776;28;20044;-60
2023/11/14 08:28:01;;;;;;;;;;;9.00;99.90;;;;;;5015993;28;20125;-58
2023/11/14 08:30:27;;;;;;;35.33;5.70;;;9.10;99.90;;;;;;5022855;28;19917;-55
2023/11/14 08:32:56;;;;;;;35.75;5.65;;;9.20;99.90;;;;;;5021381;28;20448;-62
2023/11/14 08:35:25;;;;;;;33.92;4.65;;;9.20;99.90;;;;;;5026394;28;20056;-60
2023/11/14 08:37:53;;;;;;;32.97;5.28;;;9.20;99.90;;;;;;5020928;28;20084;-58
2023/11/14 08:40:21;;;;;;;23.38;3.80;;;9.30;99.90;;;;;;5023004;28;20037;-60
2023/11/14 08:42:49;;;;;;;32.28;4.28;;;9.40;99.90;;;;;;5017166;28;20038;-59
2023/11/14 08:45:15;;;;;;;30.23;4.63;;;9.50;99.90;;;;;;5021921;28;20069;-61
2023/11/14 08:47:41;;;;;;;35.90;4.47;;;9.50;99.90;;;;;;5022327;28;20513;-61
2023/11/14 08:50:06;;;;;;;;;;;9.50;99.90;;;;;;5026670;28;20041;-58
2023/11/14 08:52:34;;;;;;;23.48;4.57;;;9.50;99.90;;;;;;5023390;28;19921;-60
2023/11/14 08:55:01;;;;;;;24.90;4.57;;;9.50;99.90;;;;;;5027801;28;20045;-56
2023/11/14 08:57:28;;;;;;;33.35;5.40;;;9.50;99.90;;;;;;5026481;28;20052;-60
2023/11/14 08:59:55;;;;;;;26.65;4.45;;;9.50;99.90;;;;;;5020348;28;20386;-60
2023/11/14 09:02:21;;;;;;;27.25;5.10;;;9.50;99.90;;;;;;5017511;28;20041;-60
2023/11/14 09:04:47;;;;;;;30.40;5.05;;;9.40;99.90;;;;;;5019631;28;20112;-60
2023/11/14 09:07:12;;;;;;;;;;;9.50;99.90;;;;;;5023588;28;20037;-59
2023/11/14 09:09:39;;;;;;;30.67;5.20;;;9.50;99.90;;;;;;5017925;28;19980;-60
2023/11/14 09:12:06;;;;;;;26.92;4.55;;;9.50;99.90;;;;;;5021426;28;20049;-61
2023/11/14 09:14:31;;;;;;;31.45;5.25;;;9.50;99.90;;;;;;5020513;28;20053;-61
2023/11/14 09:16:57;;;;;;;;;;;9.60;99.90;;;;;;5020357;28;20038;-61
2023/11/14 09:19:22;;;;;;;23.88;4.95;;;9.60;99.90;;;;;;5022012;28;20004;-56
2023/11/14 09:21:48;;;;;;;31.67;5.60;;;9.60;99.90;;;;;;5018771;28;20053;-59
2023/11/14 09:24:14;;;;;;;;;;;9.60;99.90;;;;;;5019068;28;20038;-58
2023/11/14 09:26:40;;;;;;;31.58;5.10;;;9.60;99.90;;;;;;5024554;28;19979;-61
2023/11/14 09:29:06;;;;;;;26.05;5.70;;;9.50;99.90;;;;;;5024555;28;20424;-59
2023/11/14 09:31:32;;;;;;;25.42;4.85;;;9.60;99.90;;;;;;5034850;28;20044;-59
2023/11/14 09:33:57;;;;;;;;;;;9.50;99.90;;;;;;5040679;28;20041;-60
2023/11/14 09:36:23;;;;;;;26.88;4.80;;;9.50;99.90;;;;;;5038823;28;20372;-60
2023/11/14 09:38:49;;;;;;;32.67;5.25;;;9.50;99.90;;;;;;5042694;28;20583;-59
2023/11/14 09:41:14;;;;;;;;;;;9.40;99.90;;;;;;5044918;28;20124;-59
2023/11/14 09:43:40;;;;;;;35.28;5.13;;;9.40;99.90;;;;;;5039945;28;19925;-62
2023/11/14 09:46:07;;;;;;;33.85;4.95;;;9.40;99.90;;;;;;5040235;28;20071;-61
2023/11/14 09:48:36;;;;;;;30.75;5.75;;;9.40;99.90;;;;;;5037918;28;20049;-61
2023/11/14 09:51:04;;;;;;;15.88;3.92;;;9.50;99.90;;;;;;5037769;28;20393;-61
2023/11/14 09:53:32;;;;;;;27.70;4.53;;;9.50;99.90;;;;;;5042206;28;20117;-60
2023/11/14 09:55:58;;;;;;;25.63;3.80;;;9.50;99.90;;;;;;5039327;28;20051;-62
2023/11/14 09:58:24;;;;;;;;;;;9.50;99.90;;;;;;5041881;28;20048;-62
2023/11/14 10:00:50;;;;;;;23.80;3.15;;;9.50;99.90;;;;;;5041684;28;20051;-61
2023/11/14 10:03:17;;;;;;;22.60;3.92;;;9.50;99.90;;;;;;5025821;28;20442;-62
2023/11/14 10:05:43;;;;;;;21.42;3.67;;;9.40;99.90;;;;;;5025983;28;20456;-59
2023/11/14 10:08:12;;;;;;;;;;;9.40;99.90;;;;;;5023314;28;20045;-61
2023/11/14 10:10:39;;;;;;;19.30;3.20;;;9.30;99.90;;;;;;5022865;28;20008;-61
2023/11/14 10:13:19;;;;;;;14.65;3.22;;;9.30;99.90;;;;;;5028415;28;20137;-61
2023/11/14 10:15:44;;;;;;;22.83;4.00;;;9.30;99.90;;;;;;5025261;28;20033;-61
2023/11/14 10:18:11;;;;;;;;;;;9.30;99.90;;;;;;5021060;28;20029;-61
2023/11/14 10:20:39;;;;;;;16.13;2.80;;;9.20;99.90;;;;;;5027023;28;19921;-61
2023/11/14 10:23:07;;;;;;;22.60;3.90;;;9.20;99.90;;;;;;5025525;28;20382;-63
2023/11/14 10:25:33;;;;;;;16.42;2.75;;;9.10;99.90;;;;;;5029913;28;20052;-63
2023/11/14 10:28:04;;;;;;;24.85;3.92;;;9.10;99.90;;;;;;5026738;28;20064;-62
2023/11/14 10:30:42;;;;;;;33.35;3.78;;;9.10;99.90;;;;;;5027311;28;20049;-62
2023/11/14 10:33:08;;;;;;;24.30;4.00;;;9.10;99.90;;;;;;5024941;28;20107;-63
2023/11/14 10:35:35;;;;;;;20.90;3.83;;;9.10;99.90;;;;;;5022705;28;20045;-62
2023/11/14 10:38:21;;;;;;;20.83;3.60;;;9.00;99.90;;;;;;5023957;28;20102;-62
2023/11/14 10:40:53;;;;;;;14.07;3.38;;;9.10;99.90;;;;;;5026803;28;20041;-62
2023/11/14 10:43:32;;;;;;;17.10;3.17;;;9.10;99.90;;;;;;5028370;28;20075;-62
2023/11/14 10:46:17;;;;;;;16.67;4.05;;;9.10;99.90;;;;;;5021729;28;20042;-61
2023/11/14 10:48:43;;;;;;;16.23;3.17;;;9.00;99.90;;;;;;5025973;28;20104;-61
2023/11/14 10:51:09;;;;;;;;;;;9.00;99.90;;;;;;5026744;28;20046;-62
2023/11/14 10:53:35;;;;;;;26.02;3.47;;;8.90;99.90;;;;;;5020144;28;19924;-63
2023/11/14 10:56:05;;;;;;;17.70;2.97;;;8.90;99.90;;;;;;5023966;28;20049;-63
2023/11/14 10:58:33;;;;;;;12.50;2.33;;;8.90;99.90;;;;;;5022562;28;20453;-63
2023/11/14 11:01:00;;;;;;;14.07;2.88;;;8.90;99.90;;;;;;5030226;28;20044;-60
2023/11/14 11:03:28;;;;;;;13.63;3.00;;;8.80;99.90;;;;;;5042895;28;20044;-61
2023/11/14 11:05:53;;;;;;;15.68;3.33;;;8.80;99.90;;;;;;5042573;28;20037;-60
2023/11/14 11:08:20;;;;;;;;;;;8.80;99.90;;;;;;5043239;28;20041;-57
2023/11/14 11:10:48;;;;;;;21.17;4.50;;;8.80;99.90;;;;;;5044545;28;19925;-62
2023/11/14 11:13:24;;;;;;;16.83;3.92;;;8.90;99.90;;;;;;5038303;28;20049;-62
2023/11/14 11:15:54;;;;;;;22.75;3.75;;;8.90;99.90;;;;;;5043609;28;20043;-57
2023/11/14 11:18:35;;;;;;;26.85;3.50;;;9.10;99.90;;;;;;5043383;28;20047;-61
2023/11/14 11:21:11;;;;;;;21.35;4.35;;;9.20;99.90;;;;;;5040444;28;20041;-59
2023/11/14 11:24:02;;;;;;;26.60;4.88;;;9.20;99.90;;;;;;5044810;28;20052;-60
2023/11/14 11:26:29;;;;;;;27.15;3.83;;;9.30;99.90;;;;;;5043571;28;20040;-62
2023/11/14 11:28:54;;;;;;;20.27;3.15;;;9.40;99.90;;;;;;5040115;28;20119;-61
2023/11/14 11:31:24;;;;;;;;;;;9.40;99.90;;;;;;5038516;28;20536;-63
2023/11/14 11:33:50;;;;;;;23.00;3.60;;;9.40;99.90;;;;;;5044697;28;19920;-61
2023/11/14 11:36:34;;;;;;;;;;;9.30;99.90;;;;;;5045660;28;20056;-61
2023/11/14 11:39:05;;;;;;;16.35;3.80;;;9.30;99.90;;;;;;5037461;28;19925;-61
2023/11/14 11:41:35;;;;;;;23.92;3.28;;;9.30;99.90;;;;;;5037145;28;20140;-61
2023/11/14 11:44:08;;;;;;;20.05;4.07;;;9.40;99.90;;;;;;5033585;28;20052;-61
2023/11/14 11:46:34;;;;;;;25.27;4.43;;;9.30;99.90;;;;;;5040675;28;20049;-61
2023/11/14 11:49:09;;;;;;;;;;;9.30;99.90;;;;;;5037951;28;20044;-61
2023/11/14 11:51:36;;;;;;;15.25;3.78;;;9.30;99.90;;;;;;5037308;28;19917;-57
2023/11/14 11:54:27;;;;;;;21.83;3.92;;;9.20;99.90;;;;;;5040416;28;20116;-61
2023/11/14 11:57:05;;;;;;;17.52;3.70;;;9.20;99.90;;;;;;5040132;28;20044;-61
2023/11/14 11:59:53;;;;;;;16.63;2.85;;;9.30;99.90;;;;;;5039249;28;20049;-61
2023/11/14 12:02:23;;;;;;;16.90;2.83;;;9.20;99.90;;;;;;5040426;28;20576;-57
2023/11/14 12:04:52;;;;;;;13.80;2.28;;;9.20;99.90;;;;;;5044544;28;20547;-60
2023/11/14 12:07:18;;;;;;;15.23;2.60;;;9.20;99.90;;;;;;5042261;28;20064;-58
2023/11/14 12:09:47;;;;;;;14.63;2.85;;;9.10;99.90;;;;;;5040294;28;20091;-61
2023/11/14 12:12:15;;;;;;;19.67;2.63;;;9.20;99.90;;;;;;5043640;28;20041;-61
2023/11/14 12:14:41;;;;;;;19.90;2.63;;;9.20;99.90;;;;;;5044758;28;20077;-61
2023/11/14 12:17:07;;;;;;;;;;;9.20;99.90;;;;;;5044087;28;20130;-61
2023/11/14 12:19:33;;;;;;;20.58;3.35;;;9.20;99.90;;;;;;5045677;28;20036;-61
2023/11/14 12:22:01;;;;;;;16.40;3.67;;;9.20;99.90;;;;;;5042984;28;20040;-61
2023/11/14 12:24:27;;;;;;;17.80;2.72;;;9.20;99.90;;;;;;5047651;28;20512;-63
2023/11/14 12:26:52;;;;;;;;;;;9.20;99.90;;;;;;5048812;28;20044;-61
2023/11/14 12:29:19;;;;;;;13.75;3.17;;;9.20;99.90;;;;;;5046231;28;19932;-60
2023/11/14 12:31:45;;;;;;;23.45;2.95;;;9.10;99.90;;;;;;5045636;28;20147;-62
2023/11/14 12:34:11;;;;;;;12.27;2.20;;;9.10;99.90;;;;;;5044469;28;20041;-63
2023/11/14 12:36:36;;;;;;;;;;;9.10;99.90;;;;;;5047663;28;20485;-63
2023/11/14 12:39:15;;;;;;;9.85;1.27;;;9.10;99.90;;;;;;5048460;28;19920;-62
2023/11/14 12:41:45;;;;;;;11.68;1.80;;;9.10;99.90;;;;;;5044893;28;20521;-62
2023/11/14 12:44:12;;;;;;;6.78;1.40;;;9.10;99.90;;;;;;5042395;28;20037;-62
2023/11/14 12:46:39;;;;;;;4.60;0.90;;;9.10;99.90;;;;;;5048229;28;20047;-63
2023/11/14 12:49:16;;;;;;;3.20;0.88;;;9.20;99.90;;;;;;5045870;28;20118;-62
2023/11/14 12:51:44;;;;;;;6.53;1.00;;;9.20;99.90;;;;;;5044530;28;20045;-62
2023/11/14 12:54:11;;;;;;;5.30;1.25;;;9.30;99.90;;;;;;5044556;28;20462;-62
2023/11/14 12:56:38;;;;;;;6.78;1.40;;;9.20;99.90;;;;;;5037043;28;20049;-62
2023/11/14 12:59:11;;;;;;;3.03;0.88;;;9.20;99.90;;;;;;5042771;28;20037;-60
2023/11/14 13:01:38;;;;;;;7.25;0.93;;;9.20;99.90;;;;;;5030742;23;20859;-65
2023/11/14 13:04:07;;;;;;;6.32;1.30;;;9.20;99.90;;;;;;5003930;28;20113;-65
2023/11/14 13:06:34;;;;;;;3.10;0.88;;;9.30;99.90;;;;;;5007091;28;20042;-66